sensor_id;sensor_type;location;lat;lon;timestamp;temperature;humidity
17893;DHT22;9072;51.918;4.380;2023-11-21T00:00:45;8.50;99.90
17893;DHT22;9072;51.918;4.380;2023-11-21T00:03:18;8.60;99.90
17893;DHT22;9072;51.918;4.380;2023-11-21T00:05:50;8.60;99.90
17893;DHT22;9072;51.918;4.380;2023-11-21T00:08:19;8.60;99.90
17893;DHT22;9072;51.918;4.380;2023-11-21T00:10:48;8.60;99.90
17893;DHT22;9072;51.918;4.380;2023-11-21T00:13:17;8.60;99.90
17893;DHT22;9072;51.918;4.380;2023-11-21T00:15:45;8.60;99.90
17893;DHT22;9072;51.918;4.380;2023-11-21T00:18:25;8.70;99.90
17893;DHT22;9072;51.918;4.380;2023-11-21T00:20:53;8.70;99.90
17893;DHT22;9072;51.918;4.380;2023-11-21T00:23:25;8.80;99.90
17893;DHT22;9072;51.918;4.380;2023-11-21T00:25:52;8.80;99.90
17893;DHT22;9072;51.918;4.380;2023-11-21T00:28:22;8.90;99.90
17893;DHT22;9072;51.918;4.380;2023-11-21T00:31:00;8.90;99.90
17893;DHT22;9072;51.918;4.380;2023-11-21T00:33:31;8.90;99.90
17893;DHT22;9072;51.918;4.380;2023-11-21T00:36:02;9.00;99.90
17893;DHT22;9072;51.918;4.380;2023-11-21T00:38:29;9.00;99.90
17893;DHT22;9072;51.918;4.380;2023-11-21T00:41:06;8.90;99.90
17893;DHT22;9072;51.918;4.380;2023-11-21T00:43:34;8.90;99.90
17893;DHT22;9072;51.918;4.380;2023-11-21T00:46:04;9.00;99.90
17893;DHT22;9072;51.918;4.380;2023-11-21T00:48:39;9.00;99.90
17893;DHT22;9072;51.918;4.380;2023-11-21T00:51:10;9.00;99.90
17893;DHT22;9072;51.918;4.380;2023-11-21T00:53:38;9.00;99.90
17893;DHT22;9072;51.918;4.380;2023-11-21T00:56:06;9.10;99.90
17893;DHT22;9072;51.918;4.380;2023-11-21T00:58:34;9.00;99.90
17893;DHT22;9072;51.918;4.380;2023-11-21T01:01:05;9.00;99.90
17893;DHT22;9072;51.918;4.380;2023-11-21T01:03:40;9.00;99.90
17893;DHT22;9072;51.918;4.380;2023-11-21T01:06:10;9.00;99.90
17893;DHT22;9072;51.918;4.380;2023-11-21T01:08:44;9.00;99.90
17893;DHT22;9072;51.918;4.380;2023-11-21T01:11:13;9.00;99.90
17893;DHT22;9072;51.918;4.380;2023-11-21T01:13:42;9.10;99.90
17893;DHT22;9072;51.918;4.380;2023-11-21T01:16:13;9.10;99.90
17893;DHT22;9072;51.918;4.380;2023-11-21T01:18:45;9.10;99.90
17893;DHT22;9072;51.918;4.380;2023-11-21T01:21:21;9.10;99.90
17893;DHT22;9072;51.918;4.380;2023-11-21T01:23:52;9.10;99.90
17893;DHT22;9072;51.918;4.380;2023-11-21T01:26:22;9.10;99.90
17893;DHT22;9072;51.918;4.380;2023-11-21T01:28:50;9.20;99.90
17893;DHT22;9072;51.918;4.380;2023-11-21T01:31:19;9.20;99.90
17893;DHT22;9072;51.918;4.380;2023-11-21T01:33:49;9.20;99.90
17893;DHT22;9072;51.918;4.380;2023-11-21T01:36:16;9.20;99.90
17893;DHT22;9072;51.918;4.380;2023-11-21T01:38:46;9.20;99.90
17893;DHT22;9072;51.918;4.380;2023-11-21T01:41:21;9.20;99.90
17893;DHT22;9072;51.918;4.380;2023-11-21T01:43:49;9.20;99.90
17893;DHT22;9072;51.918;4.380;2023-11-21T01:46:25;9.20;99.90
17893;DHT22;9072;51.918;4.380;2023-11-21T01:48:55;9.20;99.90
17893;DHT22;9072;51.918;4.380;2023-11-21T01:51:23;9.20;99.90
17893;DHT22;9072;51.918;4.380;2023-11-21T01:53:57;9.10;99.90
17893;DHT22;9072;51.918;4.380;2023-11-21T01:56:26;9.10;99.90
17893;DHT22;9072;51.918;4.380;2023-11-21T01:58:56;9.10;99.90
17893;DHT22;9072;51.918;4.380;2023-11-21T02:01:26;9.10;99.90
17893;DHT22;9072;51.918;4.380;2023-11-21T02:04:04;9.10;99.90
17893;DHT22;9072;51.918;4.380;2023-11-21T02:06:34;9.10;99.90
17893;DHT22;9072;51.918;4.380;2023-11-21T02:09:06;9.10;99.90
17893;DHT22;9072;51.918;4.380;2023-11-21T02:11:40;9.10;99.90
17893;DHT22;9072;51.918;4.380;2023-11-21T02:14:07;9.10;99.90
17893;DHT22;9072;51.918;4.380;2023-11-21T02:16:35;9.10;99.90
17893;DHT22;9072;51.918;4.380;2023-11-21T02:19:08;9.10;99.90
17893;DHT22;9072;51.918;4.380;2023-11-21T02:21:47;9.20;99.90
17893;DHT22;9072;51.918;4.380;2023-11-21T02:24:25;9.30;99.90
17893;DHT22;9072;51.918;4.380;2023-11-21T02:27:01;9.20;99.90
17893;DHT22;9072;51.918;4.380;2023-11-21T02:29:36;9.30;99.90
17893;DHT22;9072;51.918;4.380;2023-11-21T02:32:05;9.30;99.90
17893;DHT22;9072;51.918;4.380;2023-11-21T02:34:43;9.30;99.90
17893;DHT22;9072;51.918;4.380;2023-11-21T02:37:11;9.30;99.90
17893;DHT22;9072;51.918;4.380;2023-11-21T02:39:41;9.20;99.90
17893;DHT22;9072;51.918;4.380;2023-11-21T02:42:10;9.20;99.90
17893;DHT22;9072;51.918;4.380;2023-11-21T02:44:39;9.10;99.90
17893;DHT22;9072;51.918;4.380;2023-11-21T02:47:20;9.10;99.90
17893;DHT22;9072;51.918;4.380;2023-11-21T02:49:51;9.00;99.90
17893;DHT22;9072;51.918;4.380;2023-11-21T02:52:21;9.00;99.90
17893;DHT22;9072;51.918;4.380;2023-11-21T02:54:51;9.00;99.90
17893;DHT22;9072;51.918;4.380;2023-11-21T02:57:31;9.00;99.90
17893;DHT22;9072;51.918;4.380;2023-11-21T03:00:00;9.00;99.90
17893;DHT22;9072;51.918;4.380;2023-11-21T03:02:33;9.00;99.90
17893;DHT22;9072;51.918;4.380;2023-11-21T03:05:12;9.10;99.90
17893;DHT22;9072;51.918;4.380;2023-11-21T03:07:42;9.00;99.90
17893;DHT22;9072;51.918;4.380;2023-11-21T03:10:12;9.00;99.90
17893;DHT22;9072;51.918;4.380;2023-11-21T03:12:43;8.90;99.90
17893;DHT22;9072;51.918;4.380;2023-11-21T03:15:14;8.90;99.90
17893;DHT22;9072;51.918;4.380;2023-11-21T03:17:42;8.90;99.90
17893;DHT22;9072;51.918;4.380;2023-11-21T03:20:12;8.90;99.90
17893;DHT22;9072;51.918;4.380;2023-11-21T03:22:43;8.90;99.90
17893;DHT22;9072;51.918;4.380;2023-11-21T03:25:17;8.90;99.90
17893;DHT22;9072;51.918;4.380;2023-11-21T03:27:45;8.90;99.90
17893;DHT22;9072;51.918;4.380;2023-11-21T03:30:21;8.90;99.90
17893;DHT22;9072;51.918;4.380;2023-11-21T03:32:57;8.90;99.90
17893;DHT22;9072;51.918;4.380;2023-11-21T03:35:26;9.00;99.90
17893;DHT22;9072;51.918;4.380;2023-11-21T03:37:54;9.00;99.90
17893;DHT22;9072;51.918;4.380;2023-11-21T03:40:37;9.00;99.90
17893;DHT22;9072;51.918;4.380;2023-11-21T03:43:05;9.00;99.90
17893;DHT22;9072;51.918;4.380;2023-11-21T03:45:39;9.00;99.90
17893;DHT22;9072;51.918;4.380;2023-11-21T03:48:06;8.90;99.90
17893;DHT22;9072;51.918;4.380;2023-11-21T03:50:34;8.90;99.90
17893;DHT22;9072;51.918;4.380;2023-11-21T03:53:02;9.00;99.90
17893;DHT22;9072;51.918;4.380;2023-11-21T03:55:32;9.00;99.90
17893;DHT22;9072;51.918;4.380;2023-11-21T03:58:01;9.00;99.90
17893;DHT22;9072;51.918;4.380;2023-11-21T04:00:29;9.00;99.90
17893;DHT22;9072;51.918;4.380;2023-11-21T04:02:57;9.10;99.90
17893;DHT22;9072;51.918;4.380;2023-11-21T04:05:29;9.20;99.90
17893;DHT22;9072;51.918;4.380;2023-11-21T04:07:58;9.20;99.90
17893;DHT22;9072;51.918;4.380;2023-11-21T04:10:26;9.30;99.90
17893;DHT22;9072;51.918;4.380;2023-11-21T04:13:02;9.30;99.90
17893;DHT22;9072;51.918;4.380;2023-11-21T04:15:32;9.40;99.90
17893;DHT22;9072;51.918;4.380;2023-11-21T04:18:00;9.40;99.90
17893;DHT22;9072;51.918;4.380;2023-11-21T04:20:38;9.40;99.90
17893;DHT22;9072;51.918;4.380;2023-11-21T04:23:05;9.40;99.90
17893;DHT22;9072;51.918;4.380;2023-11-21T04:25:42;9.40;99.90
17893;DHT22;9072;51.918;4.380;2023-11-21T04:28:19;9.30;99.90
17893;DHT22;9072;51.918;4.380;2023-11-21T04:30:51;9.40;99.90
17893;DHT22;9072;51.918;4.380;2023-11-21T04:33:32;9.30;99.90
17893;DHT22;9072;51.918;4.380;2023-11-21T04:36:00;9.30;99.90
17893;DHT22;9072;51.918;4.380;2023-11-21T04:38:27;9.30;99.90
17893;DHT22;9072;51.918;4.380;2023-11-21T04:41:06;9.30;99.90
17893;DHT22;9072;51.918;4.380;2023-11-21T04:43:43;9.30;99.90
17893;DHT22;9072;51.918;4.380;2023-11-21T04:46:11;9.30;99.90
17893;DHT22;9072;51.918;4.380;2023-11-21T04:48:39;9.30;99.90
17893;DHT22;9072;51.918;4.380;2023-11-21T04:51:16;9.30;99.90
17893;DHT22;9072;51.918;4.380;2023-11-21T04:53:49;9.30;99.90
17893;DHT22;9072;51.918;4.380;2023-11-21T04:56:25;9.40;99.90
17893;DHT22;9072;51.918;4.380;2023-11-21T04:59:03;9.40;99.90
17893;DHT22;9072;51.918;4.380;2023-11-21T05:01:37;9.40;99.90
17893;DHT22;9072;51.918;4.380;2023-11-21T05:04:05;9.50;99.90
17893;DHT22;9072;51.918;4.380;2023-11-21T05:06:34;9.50;99.90
17893;DHT22;9072;51.918;4.380;2023-11-21T05:09:04;9.50;99.90
17893;DHT22;9072;51.918;4.380;2023-11-21T05:11:37;9.60;99.90
17893;DHT22;9072;51.918;4.380;2023-11-21T05:14:10;9.60;99.90
17893;DHT22;9072;51.918;4.380;2023-11-21T05:16:37;9.60;99.90
17893;DHT22;9072;51.918;4.380;2023-11-21T05:19:06;9.60;99.90
17893;DHT22;9072;51.918;4.380;2023-11-21T05:21:35;9.70;99.90
17893;DHT22;9072;51.918;4.380;2023-11-21T05:24:06;9.70;99.90
17893;DHT22;9072;51.918;4.380;2023-11-21T05:26:34;9.70;99.90
17893;DHT22;9072;51.918;4.380;2023-11-21T05:29:03;9.70;99.90
17893;DHT22;9072;51.918;4.380;2023-11-21T05:31:37;9.70;99.90
17893;DHT22;9072;51.918;4.380;2023-11-21T05:34:08;9.80;99.90
17893;DHT22;9072;51.918;4.380;2023-11-21T05:36:35;9.70;99.90
17893;DHT22;9072;51.918;4.380;2023-11-21T05:39:03;9.70;99.90
17893;DHT22;9072;51.918;4.380;2023-11-21T05:41:33;9.80;99.90
17893;DHT22;9072;51.918;4.380;2023-11-21T05:44:00;9.80;99.90
17893;DHT22;9072;51.918;4.380;2023-11-21T05:46:31;9.80;99.90
17893;DHT22;9072;51.918;4.380;2023-11-21T05:48:59;9.80;99.90
17893;DHT22;9072;51.918;4.380;2023-11-21T05:51:31;9.80;99.90
17893;DHT22;9072;51.918;4.380;2023-11-21T05:54:08;9.80;99.90
17893;DHT22;9072;51.918;4.380;2023-11-21T05:56:50;9.90;99.90
17893;DHT22;9072;51.918;4.380;2023-11-21T05:59:19;9.90;99.90
17893;DHT22;9072;51.918;4.380;2023-11-21T06:01:51;9.90;99.90
17893;DHT22;9072;51.918;4.380;2023-11-21T06:04:27;9.90;99.90
17893;DHT22;9072;51.918;4.380;2023-11-21T06:06:54;9.90;99.90
17893;DHT22;9072;51.918;4.380;2023-11-21T06:09:23;9.90;99.90
17893;DHT22;9072;51.918;4.380;2023-11-21T06:11:57;9.90;99.90
17893;DHT22;9072;51.918;4.380;2023-11-21T06:14:25;9.90;99.90
17893;DHT22;9072;51.918;4.380;2023-11-21T06:17:01;9.90;99.90
17893;DHT22;9072;51.918;4.380;2023-11-21T06:19:47;9.90;99.90
17893;DHT22;9072;51.918;4.380;2023-11-21T06:22:26;9.90;99.90
17893;DHT22;9072;51.918;4.380;2023-11-21T06:24:58;9.90;99.90
17893;DHT22;9072;51.918;4.380;2023-11-21T06:27:30;9.90;99.90
17893;DHT22;9072;51.918;4.380;2023-11-21T06:30:05;9.90;99.90
17893;DHT22;9072;51.918;4.380;2023-11-21T06:32:37;9.80;99.90
17893;DHT22;9072;51.918;4.380;2023-11-21T06:35:25;9.80;99.90
17893;DHT22;9072;51.918;4.380;2023-11-21T06:38:02;9.70;99.90
17893;DHT22;9072;51.918;4.380;2023-11-21T06:40:36;9.60;99.90
17893;DHT22;9072;51.918;4.380;2023-11-21T06:43:14;9.50;99.90
17893;DHT22;9072;51.918;4.380;2023-11-21T06:45:44;9.50;99.90
17893;DHT22;9072;51.918;4.380;2023-11-21T06:48:26;9.50;99.90
17893;DHT22;9072;51.918;4.380;2023-11-21T06:50:59;9.50;99.90
17893;DHT22;9072;51.918;4.380;2023-11-21T06:53:44;9.50;99.90
17893;DHT22;9072;51.918;4.380;2023-11-21T06:56:40;9.50;99.90
17893;DHT22;9072;51.918;4.380;2023-11-21T06:59:10;9.60;99.90
17893;DHT22;9072;51.918;4.380;2023-11-21T07:01:40;9.60;99.90
17893;DHT22;9072;51.918;4.380;2023-11-21T07:04:11;9.60;99.90
17893;DHT22;9072;51.918;4.380;2023-11-21T07:06:58;9.60;99.90
17893;DHT22;9072;51.918;4.380;2023-11-21T07:09:33;9.60;99.90
17893;DHT22;9072;51.918;4.380;2023-11-21T07:12:04;9.50;99.90
17893;DHT22;9072;51.918;4.380;2023-11-21T07:14:33;9.50;99.90
17893;DHT22;9072;51.918;4.380;2023-11-21T07:17:03;9.40;99.90
17893;DHT22;9072;51.918;4.380;2023-11-21T07:19:34;9.40;99.90
17893;DHT22;9072;51.918;4.380;2023-11-21T07:22:05;9.40;99.90
17893;DHT22;9072;51.918;4.380;2023-11-21T07:24:42;9.40;99.90
17893;DHT22;9072;51.918;4.380;2023-11-21T07:27:19;9.40;99.90
17893;DHT22;9072;51.918;4.380;2023-11-21T07:30:02;9.40;99.90
17893;DHT22;9072;51.918;4.380;2023-11-21T07:32:36;9.40;99.90
17893;DHT22;9072;51.918;4.380;2023-11-21T07:35:06;9.40;99.90
17893;DHT22;9072;51.918;4.380;2023-11-21T07:37:39;9.40;99.90
17893;DHT22;9072;51.918;4.380;2023-11-21T07:40:15;9.50;99.90
17893;DHT22;9072;51.918;4.380;2023-11-21T07:42:49;9.40;99.90
17893;DHT22;9072;51.918;4.380;2023-11-21T07:45:30;9.40;99.90
17893;DHT22;9072;51.918;4.380;2023-11-21T07:48:00;9.40;99.90
17893;DHT22;9072;51.918;4.380;2023-11-21T07:50:34;9.40;99.90
17893;DHT22;9072;51.918;4.380;2023-11-21T07:53:10;9.40;99.90
17893;DHT22;9072;51.918;4.380;2023-11-21T07:55:44;9.40;99.90
17893;DHT22;9072;51.918;4.380;2023-11-21T07:58:13;9.40;99.90
17893;DHT22;9072;51.918;4.380;2023-11-21T08:00:43;9.30;99.90
17893;DHT22;9072;51.918;4.380;2023-11-21T08:03:13;9.30;99.90
17893;DHT22;9072;51.918;4.380;2023-11-21T08:05:46;9.40;99.90
17893;DHT22;9072;51.918;4.380;2023-11-21T08:08:21;9.30;99.90
17893;DHT22;9072;51.918;4.380;2023-11-21T08:10:52;9.40;99.90
17893;DHT22;9072;51.918;4.380;2023-11-21T08:13:30;9.30;99.90
17893;DHT22;9072;51.918;4.380;2023-11-21T08:15:58;9.30;99.90
17893;DHT22;9072;51.918;4.380;2023-11-21T08:18:33;9.40;99.90
17893;DHT22;9072;51.918;4.380;2023-11-21T08:21:03;9.50;99.90
17893;DHT22;9072;51.918;4.380;2023-11-21T08:23:45;9.60;99.90
17893;DHT22;9072;51.918;4.380;2023-11-21T08:26:22;9.70;99.90
17893;DHT22;9072;51.918;4.380;2023-11-21T08:28:51;9.80;99.90
17893;DHT22;9072;51.918;4.380;2023-11-21T08:31:29;9.90;99.90
17893;DHT22;9072;51.918;4.380;2023-11-21T08:33:57;10.00;99.90
17893;DHT22;9072;51.918;4.380;2023-11-21T08:36:26;10.00;99.90
17893;DHT22;9072;51.918;4.380;2023-11-21T08:38:55;10.00;99.90
17893;DHT22;9072;51.918;4.380;2023-11-21T08:41:24;10.10;99.90
17893;DHT22;9072;51.918;4.380;2023-11-21T08:43:56;10.10;99.90
17893;DHT22;9072;51.918;4.380;2023-11-21T08:46:26;10.20;99.90
17893;DHT22;9072;51.918;4.380;2023-11-21T08:48:56;10.20;99.90
17893;DHT22;9072;51.918;4.380;2023-11-21T08:51:31;10.20;99.90
17893;DHT22;9072;51.918;4.380;2023-11-21T08:54:02;10.20;99.90
17893;DHT22;9072;51.918;4.380;2023-11-21T08:56:33;10.30;99.90
17893;DHT22;9072;51.918;4.380;2023-11-21T08:59:10;10.30;99.90
17893;DHT22;9072;51.918;4.380;2023-11-21T09:01:40;10.40;99.90
17893;DHT22;9072;51.918;4.380;2023-11-21T09:04:08;10.40;99.90
17893;DHT22;9072;51.918;4.380;2023-11-21T09:06:41;10.40;99.90
17893;DHT22;9072;51.918;4.380;2023-11-21T09:09:13;10.40;99.90
17893;DHT22;9072;51.918;4.380;2023-11-21T09:11:42;10.40;99.90
17893;DHT22;9072;51.918;4.380;2023-11-21T09:14:13;10.40;99.90
17893;DHT22;9072;51.918;4.380;2023-11-21T09:16:41;10.40;99.90
17893;DHT22;9072;51.918;4.380;2023-11-21T09:19:13;10.40;99.90
17893;DHT22;9072;51.918;4.380;2023-11-21T09:21:41;10.40;99.90
17893;DHT22;9072;51.918;4.380;2023-11-21T09:24:17;10.50;99.90
17893;DHT22;9072;51.918;4.380;2023-11-21T09:26:45;10.50;99.90
17893;DHT22;9072;51.918;4.380;2023-11-21T09:29:12;10.60;99.90
17893;DHT22;9072;51.918;4.380;2023-11-21T09:31:41;10.60;99.90
17893;DHT22;9072;51.918;4.380;2023-11-21T09:34:09;10.70;99.90
17893;DHT22;9072;51.918;4.380;2023-11-21T09:36:39;10.80;99.90
17893;DHT22;9072;51.918;4.380;2023-11-21T09:39:06;10.90;99.90
17893;DHT22;9072;51.918;4.380;2023-11-21T09:41:43;10.90;99.90
17893;DHT22;9072;51.918;4.380;2023-11-21T09:44:17;10.90;99.90
17893;DHT22;9072;51.918;4.380;2023-11-21T09:46:47;10.90;99.90
17893;DHT22;9072;51.918;4.380;2023-11-21T09:49:15;10.90;99.90
17893;DHT22;9072;51.918;4.380;2023-11-21T09:51:45;10.90;99.90
17893;DHT22;9072;51.918;4.380;2023-11-21T09:54:15;10.90;99.90
17893;DHT22;9072;51.918;4.380;2023-11-21T09:56:45;10.90;99.90
17893;DHT22;9072;51.918;4.380;2023-11-21T09:59:15;10.90;99.90
17893;DHT22;9072;51.918;4.380;2023-11-21T10:01:44;10.90;99.90
17893;DHT22;9072;51.918;4.380;2023-11-21T10:04:12;10.90;99.90
17893;DHT22;9072;51.918;4.380;2023-11-21T10:06:40;10.90;99.90
17893;DHT22;9072;51.918;4.380;2023-11-21T10:09:09;10.90;99.90
17893;DHT22;9072;51.918;4.380;2023-11-21T10:11:40;11.00;99.90
17893;DHT22;9072;51.918;4.380;2023-11-21T10:14:11;11.00;99.90
17893;DHT22;9072;51.918;4.380;2023-11-21T10:16:41;11.00;99.90
17893;DHT22;9072;51.918;4.380;2023-11-21T10:19:10;10.90;99.90
17893;DHT22;9072;51.918;4.380;2023-11-21T10:21:39;10.90;99.90
17893;DHT22;9072;51.918;4.380;2023-11-21T10:24:07;10.90;99.90
17893;DHT22;9072;51.918;4.380;2023-11-21T10:26:34;10.90;99.90
17893;DHT22;9072;51.918;4.380;2023-11-21T10:29:03;10.90;99.90
17893;DHT22;9072;51.918;4.380;2023-11-21T10:31:32;10.90;99.90
17893;DHT22;9072;51.918;4.380;2023-11-21T10:34:15;10.90;99.90
17893;DHT22;9072;51.918;4.380;2023-11-21T10:36:42;10.90;99.90
17893;DHT22;9072;51.918;4.380;2023-11-21T10:39:14;10.90;99.90
17893;DHT22;9072;51.918;4.380;2023-11-21T10:41:46;10.80;99.90
17893;DHT22;9072;51.918;4.380;2023-11-21T10:44:14;10.80;99.90
17893;DHT22;9072;51.918;4.380;2023-11-21T10:46:47;10.80;99.90
17893;DHT22;9072;51.918;4.380;2023-11-21T10:49:17;10.80;99.90
17893;DHT22;9072;51.918;4.380;2023-11-21T10:51:44;10.80;99.90
17893;DHT22;9072;51.918;4.380;2023-11-21T10:54:11;10.80;99.90
17893;DHT22;9072;51.918;4.380;2023-11-21T10:57:05;10.70;99.90
17893;DHT22;9072;51.918;4.380;2023-11-21T10:59:33;10.70;99.90
17893;DHT22;9072;51.918;4.380;2023-11-21T11:02:12;10.70;99.90
17893;DHT22;9072;51.918;4.380;2023-11-21T11:04:47;10.70;99.90
17893;DHT22;9072;51.918;4.380;2023-11-21T11:07:16;10.70;99.90
17893;DHT22;9072;51.918;4.380;2023-11-21T11:09:46;10.70;99.90
17893;DHT22;9072;51.918;4.380;2023-11-21T11:12:15;10.70;99.90
17893;DHT22;9072;51.918;4.380;2023-11-21T11:14:45;10.70;99.90
17893;DHT22;9072;51.918;4.380;2023-11-21T11:17:16;10.70;99.90
17893;DHT22;9072;51.918;4.380;2023-11-21T11:19:47;10.60;99.90
17893;DHT22;9072;51.918;4.380;2023-11-21T11:22:25;10.60;99.90
17893;DHT22;9072;51.918;4.380;2023-11-21T11:25:12;10.60;99.90
17893;DHT22;9072;51.918;4.380;2023-11-21T11:27:51;10.60;99.90
17893;DHT22;9072;51.918;4.380;2023-11-21T11:30:30;10.70;99.90
17893;DHT22;9072;51.918;4.380;2023-11-21T11:33:11;10.60;99.90
17893;DHT22;9072;51.918;4.380;2023-11-21T11:35:46;10.60;99.90
17893;DHT22;9072;51.918;4.380;2023-11-21T11:38:17;10.60;99.90
17893;DHT22;9072;51.918;4.380;2023-11-21T11:40:45;10.60;99.90
17893;DHT22;9072;51.918;4.380;2023-11-21T11:43:25;10.60;99.90
17893;DHT22;9072;51.918;4.380;2023-11-21T11:45:53;10.60;99.90
17893;DHT22;9072;51.918;4.380;2023-11-21T11:48:23;10.60;99.90
17893;DHT22;9072;51.918;4.380;2023-11-21T11:51:04;10.70;99.90
17893;DHT22;9072;51.918;4.380;2023-11-21T11:53:38;10.70;99.90
17893;DHT22;9072;51.918;4.380;2023-11-21T11:56:25;10.70;99.90
17893;DHT22;9072;51.918;4.380;2023-11-21T11:58:56;10.70;99.90
17893;DHT22;9072;51.918;4.380;2023-11-21T12:01:27;10.70;99.90
17893;DHT22;9072;51.918;4.380;2023-11-21T12:04:26;10.70;99.90
17893;DHT22;9072;51.918;4.380;2023-11-21T12:07:03;10.70;99.90
17893;DHT22;9072;51.918;4.380;2023-11-21T12:09:32;10.70;99.90
17893;DHT22;9072;51.918;4.380;2023-11-21T12:12:03;10.70;99.90
17893;DHT22;9072;51.918;4.380;2023-11-21T12:14:32;10.70;99.90
17893;DHT22;9072;51.918;4.380;2023-11-21T12:16:59;10.70;99.90
17893;DHT22;9072;51.918;4.380;2023-11-21T12:19:32;10.70;99.90
17893;DHT22;9072;51.918;4.380;2023-11-21T12:22:01;10.70;99.90
17893;DHT22;9072;51.918;4.380;2023-11-21T12:24:28;10.70;99.90
17893;DHT22;9072;51.918;4.380;2023-11-21T12:27:01;10.70;99.90
17893;DHT22;9072;51.918;4.380;2023-11-21T12:29:28;10.70;99.90
17893;DHT22;9072;51.918;4.380;2023-11-21T12:31:56;10.70;99.90
17893;DHT22;9072;51.918;4.380;2023-11-21T12:34:24;10.70;99.90
17893;DHT22;9072;51.918;4.380;2023-11-21T12:36:52;10.60;99.90
17893;DHT22;9072;51.918;4.380;2023-11-21T12:39:20;10.70;99.90
17893;DHT22;9072;51.918;4.380;2023-11-21T12:41:48;10.70;99.90
17893;DHT22;9072;51.918;4.380;2023-11-21T12:44:16;10.70;99.90
17893;DHT22;9072;51.918;4.380;2023-11-21T12:46:44;10.70;99.90
17893;DHT22;9072;51.918;4.380;2023-11-21T12:49:12;10.60;99.90
17893;DHT22;9072;51.918;4.380;2023-11-21T12:51:43;10.70;99.90
17893;DHT22;9072;51.918;4.380;2023-11-21T12:54:12;10.60;99.90
17893;DHT22;9072;51.918;4.380;2023-11-21T12:56:39;10.60;99.90
17893;DHT22;9072;51.918;4.380;2023-11-21T12:59:06;10.70;99.90
17893;DHT22;9072;51.918;4.380;2023-11-21T13:01:41;10.70;99.90
17893;DHT22;9072;51.918;4.380;2023-11-21T13:04:10;10.70;99.90
17893;DHT22;9072;51.918;4.380;2023-11-21T13:06:39;10.70;99.90
17893;DHT22;9072;51.918;4.380;2023-11-21T13:09:07;10.70;99.90
17893;DHT22;9072;51.918;4.380;2023-11-21T13:11:37;10.60;99.90
17893;DHT22;9072;51.918;4.380;2023-11-21T13:14:06;10.70;99.90
17893;DHT22;9072;51.918;4.380;2023-11-21T13:16:35;10.70;99.90
17893;DHT22;9072;51.918;4.380;2023-11-21T13:19:05;10.70;99.90
17893;DHT22;9072;51.918;4.380;2023-11-21T13:21:32;10.70;99.90
17893;DHT22;9072;51.918;4.380;2023-11-21T13:23:59;10.70;99.90
17893;DHT22;9072;51.918;4.380;2023-11-21T13:26:26;10.70;99.90
17893;DHT22;9072;51.918;4.380;2023-11-21T13:28:55;10.70;99.90
17893;DHT22;9072;51.918;4.380;2023-11-21T13:31:24;10.80;99.90
17893;DHT22;9072;51.918;4.380;2023-11-21T13:34:00;10.80;99.90
17893;DHT22;9072;51.918;4.380;2023-11-21T13:36:33;10.70;99.90
17893;DHT22;9072;51.918;4.380;2023-11-21T13:39:01;10.70;99.90
17893;DHT22;9072;51.918;4.380;2023-11-21T13:41:33;10.70;99.90
17893;DHT22;9072;51.918;4.380;2023-11-21T13:44:01;10.70;99.90
17893;DHT22;9072;51.918;4.380;2023-11-21T13:46:41;10.70;99.90
17893;DHT22;9072;51.918;4.380;2023-11-21T13:49:08;10.70;99.90
17893;DHT22;9072;51.918;4.380;2023-11-21T13:51:36;10.70;99.90
17893;DHT22;9072;51.918;4.380;2023-11-21T13:54:08;10.60;99.90
17893;DHT22;9072;51.918;4.380;2023-11-21T13:56:46;10.60;99.90
17893;DHT22;9072;51.918;4.380;2023-11-21T13:59:16;10.60;99.90
17893;DHT22;9072;51.918;4.380;2023-11-21T14:01:47;10.60;99.90
17893;DHT22;9072;51.918;4.380;2023-11-21T14:04:25;10.60;99.90
17893;DHT22;9072;51.918;4.380;2023-11-21T14:07:15;10.60;99.90
17893;DHT22;9072;51.918;4.380;2023-11-21T14:09:56;10.60;99.90
17893;DHT22;9072;51.918;4.380;2023-11-21T14:12:27;10.60;99.90
17893;DHT22;9072;51.918;4.380;2023-11-21T14:14:55;10.60;99.90
17893;DHT22;9072;51.918;4.380;2023-11-21T14:17:23;10.50;99.90
17893;DHT22;9072;51.918;4.380;2023-11-21T14:19:50;10.50;99.90
17893;DHT22;9072;51.918;4.380;2023-11-21T14:22:18;10.50;99.90
17893;DHT22;9072;51.918;4.380;2023-11-21T14:24:46;10.50;99.90
17893;DHT22;9072;51.918;4.380;2023-11-21T14:27:15;10.50;99.90
17893;DHT22;9072;51.918;4.380;2023-11-21T14:29:43;10.50;99.90
17893;DHT22;9072;51.918;4.380;2023-11-21T14:32:12;10.50;99.90
17893;DHT22;9072;51.918;4.380;2023-11-21T14:34:39;10.50;99.90
17893;DHT22;9072;51.918;4.380;2023-11-21T14:37:08;10.50;99.90
17893;DHT22;9072;51.918;4.380;2023-11-21T14:39:39;10.50;99.90
17893;DHT22;9072;51.918;4.380;2023-11-21T14:42:10;10.50;99.90
17893;DHT22;9072;51.918;4.380;2023-11-21T14:44:37;10.50;99.90
17893;DHT22;9072;51.918;4.380;2023-11-21T14:47:07;10.50;99.90
17893;DHT22;9072;51.918;4.380;2023-11-21T14:49:42;10.50;99.90
17893;DHT22;9072;51.918;4.380;2023-11-21T14:52:18;10.50;99.90
17893;DHT22;9072;51.918;4.380;2023-11-21T14:54:58;10.50;99.90
17893;DHT22;9072;51.918;4.380;2023-11-21T14:57:47;10.60;99.90
17893;DHT22;9072;51.918;4.380;2023-11-21T15:00:21;10.60;99.90
17893;DHT22;9072;51.918;4.380;2023-11-21T15:03:13;10.60;99.90
17893;DHT22;9072;51.918;4.380;2023-11-21T15:06:09;10.50;99.90
17893;DHT22;9072;51.918;4.380;2023-11-21T15:08:56;10.50;99.90
17893;DHT22;9072;51.918;4.380;2023-11-21T15:11:54;10.50;99.90
17893;DHT22;9072;51.918;4.380;2023-11-21T15:14:30;10.50;99.90
17893;DHT22;9072;51.918;4.380;2023-11-21T15:16:57;10.50;99.90
17893;DHT22;9072;51.918;4.380;2023-11-21T15:19:28;10.50;99.90
17893;DHT22;9072;51.918;4.380;2023-11-21T15:21:58;10.50;99.90
17893;DHT22;9072;51.918;4.380;2023-11-21T15:24:25;10.50;99.90
17893;DHT22;9072;51.918;4.380;2023-11-21T15:26:52;10.50;99.90
17893;DHT22;9072;51.918;4.380;2023-11-21T15:29:19;10.50;99.90
17893;DHT22;9072;51.918;4.380;2023-11-21T15:31:47;10.50;99.90
17893;DHT22;9072;51.918;4.380;2023-11-21T15:34:15;10.40;99.90
17893;DHT22;9072;51.918;4.380;2023-11-21T15:36:42;10.40;99.90
17893;DHT22;9072;51.918;4.380;2023-11-21T15:39:11;10.40;99.90
17893;DHT22;9072;51.918;4.380;2023-11-21T15:41:38;10.40;99.90
17893;DHT22;9072;51.918;4.380;2023-11-21T15:44:07;10.40;99.90
17893;DHT22;9072;51.918;4.380;2023-11-21T15:46:37;10.40;99.90
17893;DHT22;9072;51.918;4.380;2023-11-21T15:49:07;10.40;99.90
17893;DHT22;9072;51.918;4.380;2023-11-21T15:51:38;10.40;99.90
17893;DHT22;9072;51.918;4.380;2023-11-21T15:54:06;10.30;99.90
17893;DHT22;9072;51.918;4.380;2023-11-21T15:56:35;10.30;99.90
17893;DHT22;9072;51.918;4.380;2023-11-21T15:59:02;10.30;99.90
17893;DHT22;9072;51.918;4.380;2023-11-21T16:01:30;10.30;99.90
17893;DHT22;9072;51.918;4.380;2023-11-21T16:03:58;10.30;99.90
17893;DHT22;9072;51.918;4.380;2023-11-21T16:06:27;10.20;99.90
17893;DHT22;9072;51.918;4.380;2023-11-21T16:08:54;10.10;99.90
17893;DHT22;9072;51.918;4.380;2023-11-21T16:11:24;10.10;99.90
17893;DHT22;9072;51.918;4.380;2023-11-21T16:13:55;10.10;99.90
17893;DHT22;9072;51.918;4.380;2023-11-21T16:16:25;10.10;99.90
17893;DHT22;9072;51.918;4.380;2023-11-21T16:18:54;10.00;99.90
17893;DHT22;9072;51.918;4.380;2023-11-21T16:21:21;10.10;99.90
17893;DHT22;9072;51.918;4.380;2023-11-21T16:23:48;10.10;99.90